sensor_id;sensor_type;location;lat;lon;timestamp;temperature;humidity
22192;DHT22;11261;52.456;10.850;2022-08-03T00:02:16;22.00;99.90
22192;DHT22;11261;52.456;10.850;2022-08-03T00:04:44;22.00;99.90
22192;DHT22;11261;52.456;10.850;2022-08-03T00:07:12;22.00;99.90
22192;DHT22;11261;52.456;10.850;2022-08-03T00:09:42;21.90;99.90
22192;DHT22;11261;52.456;10.850;2022-08-03T00:12:10;21.90;99.90
22192;DHT22;11261;52.456;10.850;2022-08-03T00:14:39;21.90;99.90
22192;DHT22;11261;52.456;10.850;2022-08-03T00:17:07;21.90;99.90
22192;DHT22;11261;52.456;10.850;2022-08-03T00:19:35;22.00;99.90
22192;DHT22;11261;52.456;10.850;2022-08-03T00:22:04;22.00;99.90
22192;DHT22;11261;52.456;10.850;2022-08-03T00:24:32;21.90;99.90
22192;DHT22;11261;52.456;10.850;2022-08-03T00:27:03;22.00;99.90
22192;DHT22;11261;52.456;10.850;2022-08-03T00:29:31;21.90;99.90
22192;DHT22;11261;52.456;10.850;2022-08-03T00:32:19;21.90;99.90
22192;DHT22;11261;52.456;10.850;2022-08-03T00:34:50;21.70;99.90
22192;DHT22;11261;52.456;10.850;2022-08-03T00:37:24;21.60;99.90
22192;DHT22;11261;52.456;10.850;2022-08-03T00:40:09;21.50;99.90
22192;DHT22;11261;52.456;10.850;2022-08-03T00:42:54;21.40;99.90
22192;DHT22;11261;52.456;10.850;2022-08-03T00:45:25;21.30;99.90
22192;DHT22;11261;52.456;10.850;2022-08-03T00:47:54;21.20;99.90
22192;DHT22;11261;52.456;10.850;2022-08-03T00:50:24;21.20;99.90
22192;DHT22;11261;52.456;10.850;2022-08-03T00:52:56;21.10;99.90
22192;DHT22;11261;52.456;10.850;2022-08-03T00:55:25;20.90;99.90
22192;DHT22;11261;52.456;10.850;2022-08-03T00:57:55;20.80;99.90
22192;DHT22;11261;52.456;10.850;2022-08-03T01:00:26;20.80;99.90
22192;DHT22;11261;52.456;10.850;2022-08-03T01:02:55;20.80;99.90
22192;DHT22;11261;52.456;10.850;2022-08-03T01:05:23;20.90;99.90
22192;DHT22;11261;52.456;10.850;2022-08-03T01:08:01;20.90;99.90
22192;DHT22;11261;52.456;10.850;2022-08-03T01:10:35;20.90;99.90
22192;DHT22;11261;52.456;10.850;2022-08-03T01:13:16;20.80;99.90
22192;DHT22;11261;52.456;10.850;2022-08-03T01:16:11;20.90;99.90
22192;DHT22;11261;52.456;10.850;2022-08-03T01:18:46;20.80;99.90
22192;DHT22;11261;52.456;10.850;2022-08-03T01:21:23;20.70;99.90
22192;DHT22;11261;52.456;10.850;2022-08-03T01:24:05;20.60;99.90
22192;DHT22;11261;52.456;10.850;2022-08-03T01:27:02;20.50;99.90
22192;DHT22;11261;52.456;10.850;2022-08-03T01:29:56;20.50;99.90
22192;DHT22;11261;52.456;10.850;2022-08-03T01:32:43;20.40;99.90
22192;DHT22;11261;52.456;10.850;2022-08-03T01:35:31;20.40;99.90
22192;DHT22;11261;52.456;10.850;2022-08-03T01:38:08;20.40;99.90
22192;DHT22;11261;52.456;10.850;2022-08-03T01:40:39;20.30;99.90
22192;DHT22;11261;52.456;10.850;2022-08-03T01:43:11;20.30;99.90
22192;DHT22;11261;52.456;10.850;2022-08-03T01:46:03;20.20;99.90
22192;DHT22;11261;52.456;10.850;2022-08-03T01:48:32;20.10;99.90
22192;DHT22;11261;52.456;10.850;2022-08-03T01:51:02;20.10;99.90
22192;DHT22;11261;52.456;10.850;2022-08-03T01:53:31;20.10;99.90
22192;DHT22;11261;52.456;10.850;2022-08-03T01:56:02;20.00;99.90
22192;DHT22;11261;52.456;10.850;2022-08-03T01:58:34;19.90;99.90
22192;DHT22;11261;52.456;10.850;2022-08-03T02:01:05;19.80;99.90
22192;DHT22;11261;52.456;10.850;2022-08-03T02:03:37;19.60;99.90
22192;DHT22;11261;52.456;10.850;2022-08-03T02:06:28;19.60;99.90
22192;DHT22;11261;52.456;10.850;2022-08-03T02:09:20;19.50;99.90
22192;DHT22;11261;52.456;10.850;2022-08-03T02:11:50;19.50;99.90
22192;DHT22;11261;52.456;10.850;2022-08-03T02:14:20;19.30;99.90
22192;DHT22;11261;52.456;10.850;2022-08-03T02:16:51;19.30;99.90
22192;DHT22;11261;52.456;10.850;2022-08-03T02:19:19;19.40;99.90
22192;DHT22;11261;52.456;10.850;2022-08-03T02:21:50;19.50;99.90
22192;DHT22;11261;52.456;10.850;2022-08-03T02:24:26;19.50;99.90
22192;DHT22;11261;52.456;10.850;2022-08-03T02:26:58;19.50;99.90
22192;DHT22;11261;52.456;10.850;2022-08-03T02:29:31;19.50;99.90
22192;DHT22;11261;52.456;10.850;2022-08-03T02:32:09;19.50;99.90
22192;DHT22;11261;52.456;10.850;2022-08-03T02:34:39;19.50;99.90
22192;DHT22;11261;52.456;10.850;2022-08-03T02:37:10;19.50;99.90
22192;DHT22;11261;52.456;10.850;2022-08-03T02:39:40;19.50;99.90
22192;DHT22;11261;52.456;10.850;2022-08-03T02:42:11;19.40;99.90
22192;DHT22;11261;52.456;10.850;2022-08-03T02:44:42;19.20;99.90
22192;DHT22;11261;52.456;10.850;2022-08-03T02:47:18;19.20;99.90
22192;DHT22;11261;52.456;10.850;2022-08-03T02:49:48;19.20;99.90
22192;DHT22;11261;52.456;10.850;2022-08-03T02:52:20;19.20;99.90
22192;DHT22;11261;52.456;10.850;2022-08-03T02:54:52;19.10;99.90
22192;DHT22;11261;52.456;10.850;2022-08-03T02:57:22;19.00;99.90
22192;DHT22;11261;52.456;10.850;2022-08-03T02:59:53;18.90;99.90
22192;DHT22;11261;52.456;10.850;2022-08-03T03:02:24;18.90;99.90
22192;DHT22;11261;52.456;10.850;2022-08-03T03:04:55;19.00;99.90
22192;DHT22;11261;52.456;10.850;2022-08-03T03:07:44;19.00;99.90
22192;DHT22;11261;52.456;10.850;2022-08-03T03:10:18;19.00;99.90
22192;DHT22;11261;52.456;10.850;2022-08-03T03:12:47;19.00;99.90
22192;DHT22;11261;52.456;10.850;2022-08-03T03:15:17;19.00;99.90
22192;DHT22;11261;52.456;10.850;2022-08-03T03:17:48;18.90;99.90
22192;DHT22;11261;52.456;10.850;2022-08-03T03:20:17;19.00;99.90
22192;DHT22;11261;52.456;10.850;2022-08-03T03:22:57;19.00;99.90
22192;DHT22;11261;52.456;10.850;2022-08-03T03:25:27;18.90;99.90
22192;DHT22;11261;52.456;10.850;2022-08-03T03:27:55;18.90;99.90
22192;DHT22;11261;52.456;10.850;2022-08-03T03:30:25;18.80;99.90
22192;DHT22;11261;52.456;10.850;2022-08-03T03:32:56;18.80;99.90
22192;DHT22;11261;52.456;10.850;2022-08-03T03:35:26;18.80;99.90
22192;DHT22;11261;52.456;10.850;2022-08-03T03:37:55;18.80;99.90
22192;DHT22;11261;52.456;10.850;2022-08-03T03:40:23;18.70;99.90
22192;DHT22;11261;52.456;10.850;2022-08-03T03:42:51;18.60;99.90
22192;DHT22;11261;52.456;10.850;2022-08-03T03:45:20;18.60;99.90
22192;DHT22;11261;52.456;10.850;2022-08-03T03:47:50;18.60;99.90
22192;DHT22;11261;52.456;10.850;2022-08-03T03:50:21;18.60;99.90
22192;DHT22;11261;52.456;10.850;2022-08-03T03:52:49;18.60;99.90
22192;DHT22;11261;52.456;10.850;2022-08-03T03:55:17;18.60;99.90
22192;DHT22;11261;52.456;10.850;2022-08-03T03:57:45;18.70;99.90
22192;DHT22;11261;52.456;10.850;2022-08-03T04:00:16;18.70;99.90
22192;DHT22;11261;52.456;10.850;2022-08-03T04:02:45;18.80;99.90
22192;DHT22;11261;52.456;10.850;2022-08-03T04:05:14;18.80;99.90
22192;DHT22;11261;52.456;10.850;2022-08-03T04:08:05;18.80;99.90
22192;DHT22;11261;52.456;10.850;2022-08-03T04:11:00;18.80;99.90
22192;DHT22;11261;52.456;10.850;2022-08-03T04:13:32;18.70;99.90
22192;DHT22;11261;52.456;10.850;2022-08-03T04:16:02;18.70;99.90
22192;DHT22;11261;52.456;10.850;2022-08-03T04:18:33;18.70;99.90
22192;DHT22;11261;52.456;10.850;2022-08-03T04:21:05;18.70;99.90
22192;DHT22;11261;52.456;10.850;2022-08-03T04:23:38;18.70;99.90
22192;DHT22;11261;52.456;10.850;2022-08-03T04:26:10;18.70;99.90
22192;DHT22;11261;52.456;10.850;2022-08-03T04:28:42;18.70;99.90
22192;DHT22;11261;52.456;10.850;2022-08-03T04:31:11;18.80;99.90
22192;DHT22;11261;52.456;10.850;2022-08-03T04:33:41;18.80;99.90
22192;DHT22;11261;52.456;10.850;2022-08-03T04:36:16;18.70;99.90
22192;DHT22;11261;52.456;10.850;2022-08-03T04:38:53;18.90;99.90
22192;DHT22;11261;52.456;10.850;2022-08-03T04:41:24;18.90;99.90
22192;DHT22;11261;52.456;10.850;2022-08-03T04:43:55;19.00;99.90
22192;DHT22;11261;52.456;10.850;2022-08-03T04:46:26;19.00;99.90
22192;DHT22;11261;52.456;10.850;2022-08-03T04:48:55;19.00;99.90
22192;DHT22;11261;52.456;10.850;2022-08-03T04:51:25;19.10;99.90
22192;DHT22;11261;52.456;10.850;2022-08-03T04:53:54;19.20;99.90
22192;DHT22;11261;52.456;10.850;2022-08-03T04:56:22;19.60;99.90
22192;DHT22;11261;52.456;10.850;2022-08-03T04:58:51;20.00;99.90
22192;DHT22;11261;52.456;10.850;2022-08-03T05:01:19;20.20;99.90
22192;DHT22;11261;52.456;10.850;2022-08-03T05:03:49;20.70;99.90
22192;DHT22;11261;52.456;10.850;2022-08-03T05:06:17;21.10;99.90
22192;DHT22;11261;52.456;10.850;2022-08-03T05:08:51;21.50;99.90
22192;DHT22;11261;52.456;10.850;2022-08-03T05:11:20;22.00;99.90
22192;DHT22;11261;52.456;10.850;2022-08-03T05:13:49;22.50;99.90
22192;DHT22;11261;52.456;10.850;2022-08-03T05:16:17;22.70;99.90
22192;DHT22;11261;52.456;10.850;2022-08-03T05:18:45;23.00;99.90
22192;DHT22;11261;52.456;10.850;2022-08-03T05:21:13;23.60;99.90
22192;DHT22;11261;52.456;10.850;2022-08-03T05:23:43;24.00;99.90
22192;DHT22;11261;52.456;10.850;2022-08-03T05:26:11;24.00;99.90
22192;DHT22;11261;52.456;10.850;2022-08-03T05:28:41;24.40;99.90
22192;DHT22;11261;52.456;10.850;2022-08-03T05:31:17;24.80;99.90
22192;DHT22;11261;52.456;10.850;2022-08-03T05:33:45;25.10;99.90
22192;DHT22;11261;52.456;10.850;2022-08-03T05:36:15;25.10;99.90
22192;DHT22;11261;52.456;10.850;2022-08-03T05:38:43;25.20;99.90
22192;DHT22;11261;52.456;10.850;2022-08-03T05:41:11;25.60;99.90
22192;DHT22;11261;52.456;10.850;2022-08-03T05:43:51;25.90;99.90
22192;DHT22;11261;52.456;10.850;2022-08-03T05:46:20;26.30;99.90
22192;DHT22;11261;52.456;10.850;2022-08-03T05:48:49;26.50;99.90
22192;DHT22;11261;52.456;10.850;2022-08-03T05:51:18;26.50;99.90
22192;DHT22;11261;52.456;10.850;2022-08-03T05:53:46;26.80;99.90
22192;DHT22;11261;52.456;10.850;2022-08-03T05:56:14;26.70;99.90
22192;DHT22;11261;52.456;10.850;2022-08-03T05:58:44;27.10;99.90
22192;DHT22;11261;52.456;10.850;2022-08-03T06:01:15;27.30;99.90
22192;DHT22;11261;52.456;10.850;2022-08-03T06:03:43;27.30;99.90
22192;DHT22;11261;52.456;10.850;2022-08-03T06:06:12;27.50;99.90
22192;DHT22;11261;52.456;10.850;2022-08-03T06:08:41;27.70;99.90
22192;DHT22;11261;52.456;10.850;2022-08-03T06:11:10;27.40;99.90
22192;DHT22;11261;52.456;10.850;2022-08-03T06:13:39;27.90;99.90
22192;DHT22;11261;52.456;10.850;2022-08-03T06:16:07;28.20;99.90
22192;DHT22;11261;52.456;10.850;2022-08-03T06:18:37;28.60;99.90
22192;DHT22;11261;52.456;10.850;2022-08-03T06:21:06;28.90;99.90
22192;DHT22;11261;52.456;10.850;2022-08-03T06:23:44;28.90;99.90
22192;DHT22;11261;52.456;10.850;2022-08-03T06:26:20;28.80;99.90
22192;DHT22;11261;52.456;10.850;2022-08-03T06:28:49;28.80;99.90
22192;DHT22;11261;52.456;10.850;2022-08-03T06:31:20;29.00;99.50
22192;DHT22;11261;52.456;10.850;2022-08-03T06:33:51;28.50;99.20
22192;DHT22;11261;52.456;10.850;2022-08-03T06:36:39;28.50;98.80
22192;DHT22;11261;52.456;10.850;2022-08-03T06:39:07;29.10;97.60
22192;DHT22;11261;52.456;10.850;2022-08-03T06:41:36;29.40;97.40
22192;DHT22;11261;52.456;10.850;2022-08-03T06:44:11;29.90;99.10
22192;DHT22;11261;52.456;10.850;2022-08-03T06:46:39;30.20;98.00
22192;DHT22;11261;52.456;10.850;2022-08-03T06:49:10;30.70;96.90
22192;DHT22;11261;52.456;10.850;2022-08-03T06:51:39;30.10;96.90
22192;DHT22;11261;52.456;10.850;2022-08-03T06:54:27;30.60;95.80
22192;DHT22;11261;52.456;10.850;2022-08-03T06:56:59;31.10;96.20
22192;DHT22;11261;52.456;10.850;2022-08-03T06:59:27;29.60;96.30
22192;DHT22;11261;52.456;10.850;2022-08-03T07:02:16;29.60;94.80
22192;DHT22;11261;52.456;10.850;2022-08-03T07:04:47;29.60;96.10
22192;DHT22;11261;52.456;10.850;2022-08-03T07:07:16;29.70;95.70
22192;DHT22;11261;52.456;10.850;2022-08-03T07:09:45;29.50;95.30
22192;DHT22;11261;52.456;10.850;2022-08-03T07:12:23;29.40;95.30
22192;DHT22;11261;52.456;10.850;2022-08-03T07:14:52;29.60;93.90
22192;DHT22;11261;52.456;10.850;2022-08-03T07:17:26;30.20;93.50
22192;DHT22;11261;52.456;10.850;2022-08-03T07:19:55;30.20;94.10
22192;DHT22;11261;52.456;10.850;2022-08-03T07:22:24;30.90;93.40
22192;DHT22;11261;52.456;10.850;2022-08-03T07:24:52;31.80;91.90
22192;DHT22;11261;52.456;10.850;2022-08-03T07:27:20;30.70;92.50
22192;DHT22;11261;52.456;10.850;2022-08-03T07:29:48;31.10;92.90
22192;DHT22;11261;52.456;10.850;2022-08-03T07:32:16;30.80;92.20
22192;DHT22;11261;52.456;10.850;2022-08-03T07:34:45;30.80;93.40
22192;DHT22;11261;52.456;10.850;2022-08-03T07:37:15;30.70;93.70
22192;DHT22;11261;52.456;10.850;2022-08-03T07:39:43;31.30;91.50
22192;DHT22;11261;52.456;10.850;2022-08-03T07:42:11;31.00;93.30
22192;DHT22;11261;52.456;10.850;2022-08-03T07:44:40;31.30;93.00
22192;DHT22;11261;52.456;10.850;2022-08-03T07:47:08;31.50;92.70
22192;DHT22;11261;52.456;10.850;2022-08-03T07:49:48;31.30;92.90
22192;DHT22;11261;52.456;10.850;2022-08-03T07:52:18;31.20;92.60
22192;DHT22;11261;52.456;10.850;2022-08-03T07:55:04;31.80;92.90
22192;DHT22;11261;52.456;10.850;2022-08-03T07:57:33;31.80;92.40
22192;DHT22;11261;52.456;10.850;2022-08-03T08:00:03;31.70;91.40
22192;DHT22;11261;52.456;10.850;2022-08-03T08:02:32;31.80;92.20
22192;DHT22;11261;52.456;10.850;2022-08-03T08:05:00;32.70;90.00
22192;DHT22;11261;52.456;10.850;2022-08-03T08:07:33;33.60;90.50
22192;DHT22;11261;52.456;10.850;2022-08-03T08:10:01;33.50;89.00
22192;DHT22;11261;52.456;10.850;2022-08-03T08:12:29;33.20;89.20
22192;DHT22;11261;52.456;10.850;2022-08-03T08:14:57;32.10;90.30
22192;DHT22;11261;52.456;10.850;2022-08-03T08:17:26;32.30;90.30
22192;DHT22;11261;52.456;10.850;2022-08-03T08:19:54;32.30;90.80
22192;DHT22;11261;52.456;10.850;2022-08-03T08:22:23;32.80;90.40
22192;DHT22;11261;52.456;10.850;2022-08-03T08:24:58;32.90;87.80
22192;DHT22;11261;52.456;10.850;2022-08-03T08:27:27;32.60;90.80
22192;DHT22;11261;52.456;10.850;2022-08-03T08:30:16;33.20;89.80
22192;DHT22;11261;52.456;10.850;2022-08-03T08:32:46;32.80;88.70
22192;DHT22;11261;52.456;10.850;2022-08-03T08:35:14;32.70;89.40
22192;DHT22;11261;52.456;10.850;2022-08-03T08:37:43;32.60;87.30
22192;DHT22;11261;52.456;10.850;2022-08-03T08:40:20;32.20;87.70
22192;DHT22;11261;52.456;10.850;2022-08-03T08:42:49;32.80;89.00
22192;DHT22;11261;52.456;10.850;2022-08-03T08:45:25;33.60;85.20
22192;DHT22;11261;52.456;10.850;2022-08-03T08:47:54;33.90;87.20
22192;DHT22;11261;52.456;10.850;2022-08-03T08:50:30;34.10;87.50
22192;DHT22;11261;52.456;10.850;2022-08-03T08:53:01;34.80;88.40
22192;DHT22;11261;52.456;10.850;2022-08-03T08:55:33;34.40;83.50
22192;DHT22;11261;52.456;10.850;2022-08-03T08:58:22;33.50;86.60
22192;DHT22;11261;52.456;10.850;2022-08-03T09:00:50;33.40;86.10
22192;DHT22;11261;52.456;10.850;2022-08-03T09:03:19;34.00;85.90
22192;DHT22;11261;52.456;10.850;2022-08-03T09:05:57;34.20;84.90
22192;DHT22;11261;52.456;10.850;2022-08-03T09:08:26;34.50;85.00
22192;DHT22;11261;52.456;10.850;2022-08-03T09:10:57;33.70;85.40
22192;DHT22;11261;52.456;10.850;2022-08-03T09:13:25;33.80;84.10
22192;DHT22;11261;52.456;10.850;2022-08-03T09:16:16;34.30;82.90
22192;DHT22;11261;52.456;10.850;2022-08-03T09:18:46;34.40;82.90
22192;DHT22;11261;52.456;10.850;2022-08-03T09:21:18;35.40;81.80
22192;DHT22;11261;52.456;10.850;2022-08-03T09:24:03;35.10;82.10
22192;DHT22;11261;52.456;10.850;2022-08-03T09:26:49;35.30;80.10
22192;DHT22;11261;52.456;10.850;2022-08-03T09:29:19;35.40;76.60
22192;DHT22;11261;52.456;10.850;2022-08-03T09:31:48;35.40;82.90
22192;DHT22;11261;52.456;10.850;2022-08-03T09:34:16;36.10;81.00
22192;DHT22;11261;52.456;10.850;2022-08-03T09:36:47;34.80;76.10
22192;DHT22;11261;52.456;10.850;2022-08-03T09:39:18;34.30;77.50
22192;DHT22;11261;52.456;10.850;2022-08-03T09:42:08;34.80;81.30
22192;DHT22;11261;52.456;10.850;2022-08-03T09:44:42;35.50;78.30
22192;DHT22;11261;52.456;10.850;2022-08-03T09:47:11;35.10;79.80
22192;DHT22;11261;52.456;10.850;2022-08-03T09:49:41;34.80;80.60
22192;DHT22;11261;52.456;10.850;2022-08-03T09:52:29;35.40;80.90
22192;DHT22;11261;52.456;10.850;2022-08-03T09:55:16;35.70;76.60
22192;DHT22;11261;52.456;10.850;2022-08-03T09:58:08;35.00;77.80
22192;DHT22;11261;52.456;10.850;2022-08-03T10:00:52;35.80;77.90
22192;DHT22;11261;52.456;10.850;2022-08-03T10:03:21;35.60;77.00
22192;DHT22;11261;52.456;10.850;2022-08-03T10:05:49;35.40;76.50
22192;DHT22;11261;52.456;10.850;2022-08-03T10:08:24;34.90;77.80
22192;DHT22;11261;52.456;10.850;2022-08-03T10:10:53;35.10;74.60
22192;DHT22;11261;52.456;10.850;2022-08-03T10:13:24;34.90;76.90
22192;DHT22;11261;52.456;10.850;2022-08-03T10:15:53;35.60;77.30
22192;DHT22;11261;52.456;10.850;2022-08-03T10:18:41;35.70;76.00
22192;DHT22;11261;52.456;10.850;2022-08-03T10:21:11;36.10;74.80
22192;DHT22;11261;52.456;10.850;2022-08-03T10:23:41;35.90;74.90
22192;DHT22;11261;52.456;10.850;2022-08-03T10:26:12;36.20;74.90
22192;DHT22;11261;52.456;10.850;2022-08-03T10:28:48;36.40;73.10
22192;DHT22;11261;52.456;10.850;2022-08-03T10:31:17;36.50;76.00
22192;DHT22;11261;52.456;10.850;2022-08-03T10:33:49;36.00;74.60
22192;DHT22;11261;52.456;10.850;2022-08-03T10:36:21;36.40;74.90
22192;DHT22;11261;52.456;10.850;2022-08-03T10:38:51;36.10;75.20
22192;DHT22;11261;52.456;10.850;2022-08-03T10:41:20;36.10;73.90
22192;DHT22;11261;52.456;10.850;2022-08-03T10:43:55;36.20;74.60
22192;DHT22;11261;52.456;10.850;2022-08-03T10:46:24;35.70;73.70
22192;DHT22;11261;52.456;10.850;2022-08-03T10:48:54;36.30;75.10
22192;DHT22;11261;52.456;10.850;2022-08-03T10:51:23;36.10;73.70
22192;DHT22;11261;52.456;10.850;2022-08-03T10:53:57;35.40;73.40
22192;DHT22;11261;52.456;10.850;2022-08-03T10:56:38;35.00;71.60
22192;DHT22;11261;52.456;10.850;2022-08-03T10:59:57;34.70;73.80
22192;DHT22;11261;52.456;10.850;2022-08-03T11:03:03;35.90;73.30
22192;DHT22;11261;52.456;10.850;2022-08-03T11:05:34;36.10;71.00
22192;DHT22;11261;52.456;10.850;2022-08-03T11:08:26;36.20;73.80
22192;DHT22;11261;52.456;10.850;2022-08-03T11:10:57;36.80;72.30
22192;DHT22;11261;52.456;10.850;2022-08-03T11:13:27;35.90;70.90
22192;DHT22;11261;52.456;10.850;2022-08-03T11:16:00;36.10;73.40
22192;DHT22;11261;52.456;10.850;2022-08-03T11:18:33;36.30;70.40
22192;DHT22;11261;52.456;10.850;2022-08-03T11:21:01;36.50;73.00
22192;DHT22;11261;52.456;10.850;2022-08-03T11:23:41;37.10;69.50
22192;DHT22;11261;52.456;10.850;2022-08-03T11:26:30;37.10;71.80
22192;DHT22;11261;52.456;10.850;2022-08-03T11:29:26;36.60;72.30
22192;DHT22;11261;52.456;10.850;2022-08-03T11:31:56;36.50;70.80
22192;DHT22;11261;52.456;10.850;2022-08-03T11:34:24;36.90;70.20
22192;DHT22;11261;52.456;10.850;2022-08-03T11:37:18;37.00;70.60
22192;DHT22;11261;52.456;10.850;2022-08-03T11:39:55;36.60;67.90
22192;DHT22;11261;52.456;10.850;2022-08-03T11:42:37;36.20;71.80
22192;DHT22;11261;52.456;10.850;2022-08-03T11:45:07;36.50;70.20
22192;DHT22;11261;52.456;10.850;2022-08-03T11:47:38;36.80;69.00
22192;DHT22;11261;52.456;10.850;2022-08-03T11:50:17;36.50;69.30
22192;DHT22;11261;52.456;10.850;2022-08-03T11:52:46;35.00;71.20
22192;DHT22;11261;52.456;10.850;2022-08-03T11:55:17;36.00;71.40
22192;DHT22;11261;52.456;10.850;2022-08-03T11:57:47;36.20;70.10
22192;DHT22;11261;52.456;10.850;2022-08-03T12:00:35;36.40;69.90
22192;DHT22;11261;52.456;10.850;2022-08-03T12:03:07;36.50;69.40
22192;DHT22;11261;52.456;10.850;2022-08-03T12:05:41;37.10;67.60
22192;DHT22;11261;52.456;10.850;2022-08-03T12:08:28;37.30;68.20
22192;DHT22;11261;52.456;10.850;2022-08-03T12:10:59;36.70;68.60
22192;DHT22;11261;52.456;10.850;2022-08-03T12:13:38;37.00;66.10
22192;DHT22;11261;52.456;10.850;2022-08-03T12:16:27;36.20;66.70
22192;DHT22;11261;52.456;10.850;2022-08-03T12:18:58;35.80;68.30
22192;DHT22;11261;52.456;10.850;2022-08-03T12:21:28;36.30;70.00
22192;DHT22;11261;52.456;10.850;2022-08-03T12:23:57;36.10;69.60
22192;DHT22;11261;52.456;10.850;2022-08-03T12:26:27;36.20;69.50
22192;DHT22;11261;52.456;10.850;2022-08-03T12:28:56;36.30;68.60
22192;DHT22;11261;52.456;10.850;2022-08-03T12:31:24;35.70;70.20
22192;DHT22;11261;52.456;10.850;2022-08-03T12:33:59;36.50;68.50
22192;DHT22;11261;52.456;10.850;2022-08-03T12:36:30;37.20;68.70
22192;DHT22;11261;52.456;10.850;2022-08-03T12:39:01;36.20;68.10
22192;DHT22;11261;52.456;10.850;2022-08-03T12:41:31;36.40;68.30
22192;DHT22;11261;52.456;10.850;2022-08-03T12:44:01;36.10;70.40
22192;DHT22;11261;52.456;10.850;2022-08-03T12:46:34;36.50;66.50
22192;DHT22;11261;52.456;10.850;2022-08-03T12:49:08;35.80;65.00
22192;DHT22;11261;52.456;10.850;2022-08-03T12:51:54;36.10;67.20
22192;DHT22;11261;52.456;10.850;2022-08-03T12:54:25;36.70;67.50
22192;DHT22;11261;52.456;10.850;2022-08-03T12:56:58;36.90;66.30
22192;DHT22;11261;52.456;10.850;2022-08-03T12:59:28;36.80;65.00
22192;DHT22;11261;52.456;10.850;2022-08-03T13:02:01;36.80;67.10
22192;DHT22;11261;52.456;10.850;2022-08-03T13:04:36;37.20;66.60
22192;DHT22;11261;52.456;10.850;2022-08-03T13:07:06;37.30;65.90
22192;DHT22;11261;52.456;10.850;2022-08-03T13:09:41;37.20;66.90
22192;DHT22;11261;52.456;10.850;2022-08-03T13:12:12;37.00;66.60
22192;DHT22;11261;52.456;10.850;2022-08-03T13:14:40;36.70;65.10
22192;DHT22;11261;52.456;10.850;2022-08-03T13:17:09;35.90;65.90
22192;DHT22;11261;52.456;10.850;2022-08-03T13:19:39;35.80;66.20
22192;DHT22;11261;52.456;10.850;2022-08-03T13:22:12;36.50;67.20
22192;DHT22;11261;52.456;10.850;2022-08-03T13:24:41;36.40;66.20
22192;DHT22;11261;52.456;10.850;2022-08-03T13:27:10;36.80;68.00
22192;DHT22;11261;52.456;10.850;2022-08-03T13:29:58;36.70;66.70
22192;DHT22;11261;52.456;10.850;2022-08-03T13:32:27;36.50;65.00
22192;DHT22;11261;52.456;10.850;2022-08-03T13:34:56;36.40;64.50
22192;DHT22;11261;52.456;10.850;2022-08-03T13:37:24;36.40;66.10
22192;DHT22;11261;52.456;10.850;2022-08-03T13:39:53;36.60;66.50
22192;DHT22;11261;52.456;10.850;2022-08-03T13:42:27;37.00;65.90
22192;DHT22;11261;52.456;10.850;2022-08-03T13:44:56;36.70;64.80
22192;DHT22;11261;52.456;10.850;2022-08-03T13:47:24;36.90;65.30
22192;DHT22;11261;52.456;10.850;2022-08-03T13:49:53;35.80;65.30
22192;DHT22;11261;52.456;10.850;2022-08-03T13:52:28;36.50;65.90
22192;DHT22;11261;52.456;10.850;2022-08-03T13:54:56;36.80;65.90
22192;DHT22;11261;52.456;10.850;2022-08-03T13:57:24;36.80;63.20
22192;DHT22;11261;52.456;10.850;2022-08-03T14:00:13;36.00;65.40
22192;DHT22;11261;52.456;10.850;2022-08-03T14:02:54;36.40;66.40
22192;DHT22;11261;52.456;10.850;2022-08-03T14:05:31;36.70;66.80
22192;DHT22;11261;52.456;10.850;2022-08-03T14:08:01;36.50;65.90
22192;DHT22;11261;52.456;10.850;2022-08-03T14:10:32;36.60;66.70
22192;DHT22;11261;52.456;10.850;2022-08-03T14:13:01;37.20;64.30
22192;DHT22;11261;52.456;10.850;2022-08-03T14:15:29;36.80;65.00
22192;DHT22;11261;52.456;10.850;2022-08-03T14:18:03;35.80;63.30
22192;DHT22;11261;52.456;10.850;2022-08-03T14:20:31;35.40;67.10
22192;DHT22;11261;52.456;10.850;2022-08-03T14:23:06;34.90;66.30
22192;DHT22;11261;52.456;10.850;2022-08-03T14:25:34;35.90;65.70
22192;DHT22;11261;52.456;10.850;2022-08-03T14:28:16;35.00;64.00
22192;DHT22;11261;52.456;10.850;2022-08-03T14:30:44;36.20;65.80
22192;DHT22;11261;52.456;10.850;2022-08-03T14:33:14;36.70;64.00
22192;DHT22;11261;52.456;10.850;2022-08-03T14:35:42;36.70;63.20
22192;DHT22;11261;52.456;10.850;2022-08-03T14:38:12;36.70;64.90
22192;DHT22;11261;52.456;10.850;2022-08-03T14:40:40;36.30;65.80
22192;DHT22;11261;52.456;10.850;2022-08-03T14:43:08;35.90;65.70
22192;DHT22;11261;52.456;10.850;2022-08-03T14:45:37;36.10;67.00
22192;DHT22;11261;52.456;10.850;2022-08-03T14:48:05;36.20;65.60
22192;DHT22;11261;52.456;10.850;2022-08-03T14:50:54;36.00;65.00
22192;DHT22;11261;52.456;10.850;2022-08-03T14:53:24;35.50;64.10
22192;DHT22;11261;52.456;10.850;2022-08-03T14:55:52;34.40;66.10
22192;DHT22;11261;52.456;10.850;2022-08-03T14:58:20;34.60;66.80
22192;DHT22;11261;52.456;10.850;2022-08-03T15:00:50;35.40;65.30
22192;DHT22;11261;52.456;10.850;2022-08-03T15:03:20;35.90;64.90
22192;DHT22;11261;52.456;10.850;2022-08-03T15:05:49;35.70;65.20
22192;DHT22;11261;52.456;10.850;2022-08-03T15:08:20;35.30;66.10
22192;DHT22;11261;52.456;10.850;2022-08-03T15:10:50;35.50;65.90
22192;DHT22;11261;52.456;10.850;2022-08-03T15:13:19;35.70;65.20
22192;DHT22;11261;52.456;10.850;2022-08-03T15:15:47;35.90;66.40
22192;DHT22;11261;52.456;10.850;2022-08-03T15:18:17;35.50;66.50
22192;DHT22;11261;52.456;10.850;2022-08-03T15:20:46;35.40;65.70
22192;DHT22;11261;52.456;10.850;2022-08-03T15:23:17;35.60;65.00
22192;DHT22;11261;52.456;10.850;2022-08-03T15:25:46;35.60;65.80
22192;DHT22;11261;52.456;10.850;2022-08-03T15:28:36;35.30;65.90
22192;DHT22;11261;52.456;10.850;2022-08-03T15:31:04;35.20;66.00
22192;DHT22;11261;52.456;10.850;2022-08-03T15:33:33;34.70;66.20
22192;DHT22;11261;52.456;10.850;2022-08-03T15:36:01;34.70;64.90
22192;DHT22;11261;52.456;10.850;2022-08-03T15:38:30;35.00;65.10
22192;DHT22;11261;52.456;10.850;2022-08-03T15:40:58;34.90;64.40
22192;DHT22;11261;52.456;10.850;2022-08-03T15:43:26;35.10;65.20
22192;DHT22;11261;52.456;10.850;2022-08-03T15:45:55;35.20;65.40
22192;DHT22;11261;52.456;10.850;2022-08-03T15:48:44;35.00;65.80
22192;DHT22;11261;52.456;10.850;2022-08-03T15:51:13;35.00;65.60